Time;durP1;ratioP1;P1;durP2;ratioP2;P2;SDS_P1;SDS_P2;PMS_P1;PMS_P2;Temp;Humidity;BMP_temperature;BMP_pressure;BME280_temperature;BME280_humidity;BME280_pressure;Samples;Min_cycle;Max_cycle;Signal;HPM_P1;HPM_P2
2021/04/05 00:01:32;;;;;;;5.05;3.33;;;5.90;99.90;;;;;;5134315;27;20118;-53
2021/04/05 00:03:58;;;;;;;7.10;2.80;;;6.00;99.90;;;;;;5135812;27;20027;-52
2021/04/05 00:06:30;;;;;;;7.00;3.53;;;6.10;99.90;;;;;;5135891;27;20027;-53
2021/04/05 00:08:56;;;;;;;5.55;3.72;;;6.20;99.90;;;;;;5116945;27;20088;-53
2021/04/05 00:11:22;;;;;;;6.40;3.92;;;6.10;99.90;;;;;;5116789;27;20031;-53
2021/04/05 00:13:48;;;;;;;5.10;3.47;;;6.30;99.90;;;;;;5099722;27;20374;-53
2021/04/05 00:16:18;;;;;;;5.70;3.67;;;6.20;99.90;;;;;;5135623;27;20019;-53
2021/04/05 00:18:44;;;;;;;8.75;4.82;;;6.20;99.90;;;;;;5116712;27;20039;-52
2021/04/05 00:21:16;;;;;;;7.00;4.57;;;6.20;99.90;;;;;;5135588;27;20027;-52
2021/04/05 00:23:42;;;;;;;8.07;5.47;;;6.40;99.90;;;;;;5135589;27;20059;-53
2021/04/05 00:26:08;;;;;;;10.27;5.18;;;6.50;99.90;;;;;;5135338;27;20477;-52
2021/04/05 00:28:34;;;;;;;11.85;6.00;;;6.50;99.90;;;;;;5135480;27;20064;-53
2021/04/05 00:31:01;;;;;;;16.95;8.98;;;6.50;99.90;;;;;;5135583;27;20065;-53
2021/04/05 00:33:27;;;;;;;35.13;15.13;;;6.50;99.90;;;;;;5135049;27;20051;-53
2021/04/05 00:35:53;;;;;;;35.13;17.48;;;6.60;99.90;;;;;;5116455;27;20035;-53
2021/04/05 00:38:19;;;;;;;33.92;15.70;;;6.50;99.90;;;;;;5135113;27;20058;-53
2021/04/05 00:40:49;;;;;;;37.35;15.98;;;6.40;99.90;;;;;;5135438;27;20034;-54
2021/04/05 00:43:17;;;;;;;44.88;19.88;;;6.40;99.90;;;;;;5134980;27;20081;-53
2021/04/05 00:45:43;;;;;;;51.33;23.95;;;6.40;99.90;;;;;;5135041;27;20023;-53
2021/04/05 00:48:11;;;;;;;29.67;15.90;;;6.50;99.90;;;;;;5134927;27;20027;-53
2021/04/05 00:50:58;;;;;;;25.38;12.60;;;6.50;99.90;;;;;;5134939;27;20023;-53
2021/04/05 00:53:31;;;;;;;14.63;8.30;;;6.50;99.90;;;;;;5130771;27;20059;-53
2021/04/05 00:56:00;;;;;;;10.57;6.97;;;6.50;99.90;;;;;;5124021;27;20042;-53
2021/04/05 00:58:26;;;;;;;8.73;5.63;;;6.40;99.90;;;;;;5114392;28;20030;-52
2021/04/05 01:00:54;;;;;;;9.25;4.53;;;6.50;99.90;;;;;;5114167;28;20527;-53
2021/04/05 01:03:25;;;;;;;7.10;4.28;;;6.40;99.90;;;;;;5114102;28;20035;-53
2021/04/05 01:05:53;;;;;;;6.28;3.50;;;6.30;99.90;;;;;;5114186;28;20102;-53
2021/04/05 01:08:19;;;;;;;5.07;3.63;;;6.30;99.90;;;;;;5114018;28;20490;-54
2021/04/05 01:10:46;;;;;;;5.22;3.47;;;6.30;99.90;;;;;;5112216;28;20065;-53
2021/04/05 01:13:13;;;;;;;6.00;3.47;;;6.30;99.90;;;;;;5114582;28;20073;-53
2021/04/05 01:15:39;;;;;;;6.47;3.38;;;6.30;99.90;;;;;;5114576;28;20027;-53
2021/04/05 01:18:06;;;;;;;4.40;3.40;;;6.30;99.90;;;;;;5114668;28;20020;-54
2021/04/05 01:20:32;;;;;;;5.55;3.63;;;6.30;99.90;;;;;;5114248;28;20367;-54
2021/04/05 01:23:00;;;;;;;4.72;2.97;;;6.40;99.90;;;;;;5114185;28;20031;-54
2021/04/05 01:25:26;;;;;;;5.38;2.92;;;6.40;99.90;;;;;;5114297;28;20023;-52
2021/04/05 01:27:55;;;;;;;4.63;3.08;;;6.40;99.90;;;;;;5114164;28;20088;-54
2021/04/05 01:30:30;;;;;;;7.10;3.22;;;6.40;99.90;;;;;;5113934;28;20028;-53
2021/04/05 01:33:22;;;;;;;6.53;3.83;;;6.30;99.90;;;;;;5113657;28;20047;-53
2021/04/05 01:35:49;;;;;;;4.80;2.97;;;6.30;99.90;;;;;;5113969;28;20031;-53
2021/04/05 01:38:18;;;;;;;4.78;3.00;;;6.30;99.90;;;;;;5114151;28;20057;-52
2021/04/05 01:40:57;;;;;;;7.43;3.70;;;6.20;99.90;;;;;;5113885;28;20035;-54
2021/04/05 01:43:24;;;;;;;5.95;3.42;;;;;;;;;;5113654;28;20043;-53
2021/04/05 01:45:53;;;;;;;6.35;3.20;;;5.90;99.90;;;;;;5113921;28;20035;-53
2021/04/05 01:48:25;;;;;;;7.88;4.22;;;5.90;99.90;;;;;;5111916;28;20031;-53
2021/04/05 01:50:56;;;;;;;5.70;3.38;;;5.80;99.90;;;;;;5113777;28;20382;-52
2021/04/05 01:53:22;;;;;;;5.63;3.70;;;5.80;99.90;;;;;;5114866;27;20110;-54
2021/04/05 01:55:48;;;;;;;6.03;3.28;;;5.90;99.90;;;;;;5131958;27;20548;-53
2021/04/05 01:58:20;;;;;;;5.07;3.13;;;5.90;99.90;;;;;;5118388;28;20030;-53
2021/04/05 02:00:47;;;;;;;4.88;2.92;;;5.90;99.90;;;;;;5123840;27;20115;-53
2021/04/05 02:03:13;;;;;;;7.75;3.40;;;5.90;99.90;;;;;;5113738;28;20039;-54
2021/04/05 02:05:47;;;;;;;7.25;3.22;;;5.80;99.90;;;;;;5116877;28;20051;-53
2021/04/05 02:08:16;;;;;;;5.68;3.85;;;5.80;99.90;;;;;;5117527;28;20384;-53
2021/04/05 02:10:43;;;;;;;5.57;3.28;;;5.70;99.90;;;;;;5122367;27;20034;-53
2021/04/05 02:13:08;;;;;;;8.93;3.58;;;5.80;99.90;;;;;;5137987;27;20019;-53
2021/04/05 02:15:35;;;;;;;5.95;3.63;;;5.70;99.90;;;;;;5138340;27;20033;-53
2021/04/05 02:18:01;;;;;;;6.88;3.40;;;5.70;99.90;;;;;;5119381;27;20038;-53
2021/04/05 02:20:29;;;;;;;6.38;3.60;;;5.70;99.90;;;;;;5137672;27;20063;-53
2021/04/05 02:22:54;;;;;;;5.97;3.85;;;5.70;99.90;;;;;;5137855;27;20381;-53
2021/04/05 02:25:22;;;;;;;4.93;2.97;;;5.70;99.90;;;;;;5137854;27;20110;-54
2021/04/05 02:27:50;;;;;;;6.30;3.50;;;5.60;99.90;;;;;;5122600;27;20031;-52
2021/04/05 02:30:24;;;;;;;5.88;3.67;;;5.60;99.90;;;;;;5117508;28;20015;-53
2021/04/05 02:32:54;;;;;;;6.45;3.58;;;5.60;99.90;;;;;;5094300;28;20055;-52
2021/04/05 02:35:22;;;;;;;6.18;2.97;;;5.50;99.90;;;;;;5094445;28;20521;-53
2021/04/05 02:37:48;;;;;;;8.43;4.10;;;5.50;99.90;;;;;;5094410;28;20422;-53
2021/04/05 02:40:15;;;;;;;6.00;3.38;;;;;;;;;;5094711;28;20028;-52
2021/04/05 02:42:41;;;;;;;6.13;3.17;;;5.50;99.90;;;;;;5094304;28;20511;-53
2021/04/05 02:45:08;;;;;;;7.80;3.70;;;5.50;99.90;;;;;;5094655;28;20048;-53
2021/04/05 02:47:36;;;;;;;5.60;3.55;;;5.50;99.90;;;;;;5094254;28;20120;-53
2021/04/05 02:50:06;;;;;;;7.07;3.13;;;5.50;99.90;;;;;;5094344;28;20032;-53
2021/04/05 02:52:36;;;;;;;7.65;3.97;;;5.40;99.90;;;;;;5094131;28;20028;-54
2021/04/05 02:55:10;;;;;;;5.22;3.38;;;5.40;99.90;;;;;;5109095;28;20028;-53
2021/04/05 02:57:41;;;;;;;6.10;3.40;;;;;;;;;;5101611;28;20054;-53
2021/04/05 03:00:11;;;;;;;7.70;3.53;;;5.00;99.90;;;;;;5072803;28;20135;-54
2021/04/05 03:02:38;;;;;;;6.28;3.25;;;5.30;99.90;;;;;;5045063;28;20097;-53
2021/04/05 03:05:08;;;;;;;7.05;3.63;;;5.10;99.90;;;;;;5044888;28;20036;-53
2021/04/05 03:07:35;;;;;;;5.95;3.40;;;5.10;99.90;;;;;;5063637;28;20522;-53
2021/04/05 03:10:07;;;;;;;7.60;3.58;;;5.10;99.90;;;;;;5124473;27;20088;-53
2021/04/05 03:12:35;;;;;;;5.93;3.60;;;5.10;99.90;;;;;;5100985;28;20118;-53
2021/04/05 03:15:06;;;;;;;6.68;3.80;;;5.10;99.90;;;;;;5123534;27;20058;-52
2021/04/05 03:17:34;;;;;;;5.53;3.92;;;5.20;99.90;;;;;;5136736;27;20065;-53
2021/04/05 03:20:03;;;;;;;6.63;3.75;;;5.10;99.90;;;;;;5136812;27;20023;-52
2021/04/05 03:22:29;;;;;;;7.10;4.60;;;5.20;99.90;;;;;;5136567;27;20135;-52
2021/04/05 03:24:55;;;;;;;6.03;3.53;;;5.30;99.90;;;;;;5136292;27;20131;-54
2021/04/05 03:27:21;;;;;;;10.07;3.85;;;;;;;;;;5136710;27;20080;-54
2021/04/05 03:29:48;;;;;;;5.72;3.25;;;5.40;99.90;;;;;;5136594;27;20396;-54
2021/04/05 03:32:20;;;;;;;5.43;3.67;;;5.40;99.90;;;;;;5136385;27;20043;-53
2021/04/05 03:34:55;;;;;;;5.70;3.60;;;5.40;99.90;;;;;;5136389;27;20050;-53
2021/04/05 03:37:23;;;;;;;6.85;3.60;;;5.30;99.90;;;;;;5136307;27;20031;-53
2021/04/05 03:39:50;;;;;;;4.75;3.20;;;5.30;99.90;;;;;;5136441;27;20075;-53
2021/04/05 03:42:35;;;;;;;7.68;3.60;;;5.30;99.90;;;;;;5117371;27;20047;-54
2021/04/05 03:45:14;;;;;;;4.75;3.00;;;5.30;99.90;;;;;;5136269;27;20371;-54
2021/04/05 03:47:50;;;;;;;4.80;3.50;;;5.30;99.90;;;;;;5136136;27;20123;-53
2021/04/05 03:50:26;;;;;;;5.32;3.05;;;5.30;99.90;;;;;;5135963;27;20034;-52
2021/04/05 03:53:16;;;;;;;8.95;3.90;;;5.40;99.90;;;;;;5136488;27;20015;-53
2021/04/05 03:55:44;;;;;;;6.85;3.53;;;5.30;99.90;;;;;;5135994;27;20052;-53
2021/04/05 03:58:12;;;;;;;6.88;3.97;;;5.40;99.90;;;;;;5136280;27;20016;-54
2021/04/05 04:00:39;;;;;;;5.78;3.42;;;5.40;99.90;;;;;;5135921;27;20027;-54
2021/04/05 04:03:08;;;;;;;6.03;3.75;;;5.40;99.90;;;;;;5135794;27;20054;-53
2021/04/05 04:05:42;;;;;;;5.05;3.75;;;5.40;99.90;;;;;;5116926;27;20031;-53
2021/04/05 04:08:18;;;;;;;4.63;3.08;;;5.40;99.90;;;;;;5135817;27;20042;-53
2021/04/05 04:10:48;;;;;;;6.28;3.53;;;5.30;99.90;;;;;;5135492;27;20042;-53
2021/04/05 04:13:15;;;;;;;6.20;3.15;;;5.40;99.90;;;;;;5135750;27;20024;-53
2021/04/05 04:15:42;;;;;;;9.13;3.70;;;5.30;99.90;;;;;;5123100;27;20023;-54
2021/04/05 04:18:10;;;;;;;5.43;3.45;;;5.40;99.90;;;;;;5119012;27;20473;-53
2021/04/05 04:20:36;;;;;;;9.10;5.10;;;5.40;99.90;;;;;;5135294;27;20113;-52
2021/04/05 04:23:02;;;;;;;8.98;5.15;;;5.40;99.90;;;;;;5135676;27;20039;-53
2021/04/05 04:25:28;;;;;;;5.63;3.83;;;5.30;99.90;;;;;;5129145;27;20446;-53
2021/04/05 04:27:54;;;;;;;6.25;3.88;;;5.40;99.90;;;;;;5095255;28;20127;-53
2021/04/05 04:30:31;;;;;;;6.75;4.00;;;5.40;99.90;;;;;;5096197;27;20035;-53
2021/04/05 04:33:05;;;;;;;6.13;3.40;;;5.50;99.90;;;;;;5115596;27;20058;-54
2021/04/05 04:35:33;;;;;;;4.95;3.47;;;5.70;99.90;;;;;;5119931;27;20027;-54
2021/04/05 04:38:01;;;;;;;6.72;3.75;;;5.70;99.90;;;;;;5112842;28;20036;-54
2021/04/05 04:40:28;;;;;;;5.40;3.33;;;;;;;;;;5112356;28;20047;-54
2021/04/05 04:42:59;;;;;;;5.88;3.30;;;5.90;99.90;;;;;;5092845;28;20491;-54
2021/04/05 04:45:25;;;;;;;5.30;3.45;;;5.90;99.90;;;;;;5092219;28;20036;-54
2021/04/05 04:47:52;;;;;;;6.85;3.42;;;5.80;99.90;;;;;;5092239;28;20040;-53
2021/04/05 04:50:19;;;;;;;4.50;3.10;;;6.00;99.90;;;;;;5101079;28;20020;-53
2021/04/05 04:52:45;;;;;;;6.40;3.58;;;6.10;99.90;;;;;;5078537;28;20476;-54
2021/04/05 04:55:12;;;;;;;7.30;4.18;;;6.20;99.90;;;;;;5095245;28;20476;-54
2021/04/05 04:57:38;;;;;;;10.32;5.35;;;6.00;99.90;;;;;;5111786;28;20119;-55
2021/04/05 05:00:05;;;;;;;15.43;6.35;;;5.90;99.90;;;;;;5106389;28;20032;-54
2021/04/05 05:02:34;;;;;;;7.97;4.70;;;5.60;99.90;;;;;;5076914;28;20048;-54
2021/04/05 05:05:02;;;;;;;8.35;5.50;;;5.50;99.90;;;;;;5098599;28;20038;-54
2021/04/05 05:07:29;;;;;;;7.80;4.55;;;5.40;99.90;;;;;;5099568;28;20028;-54
2021/04/05 05:09:56;;;;;;;12.70;4.75;;;5.50;99.90;;;;;;5111890;28;20034;-53
2021/04/05 05:12:22;;;;;;;10.45;5.78;;;5.30;99.90;;;;;;5110952;27;20087;-53
2021/04/05 05:14:48;;;;;;;15.82;6.50;;;5.30;99.90;;;;;;5121344;27;20031;-55
2021/04/05 05:17:16;;;;;;;8.20;5.15;;;5.40;99.90;;;;;;5114082;28;20466;-54
2021/04/05 05:19:43;;;;;;;9.70;6.18;;;5.70;99.90;;;;;;5113842;28;20023;-53
2021/04/05 05:22:14;;;;;;;15.23;8.23;;;5.80;99.90;;;;;;5120086;27;20039;-54
2021/04/05 05:24:43;;;;;;;19.33;10.02;;;5.90;99.90;;;;;;5123575;28;20058;-53
2021/04/05 05:27:11;;;;;;;8.75;5.60;;;5.90;99.90;;;;;;5134471;27;20165;-54
2021/04/05 05:29:38;;;;;;;6.57;3.92;;;5.90;99.90;;;;;;5134494;27;20094;-54
2021/04/05 05:32:05;;;;;;;7.70;4.43;;;5.90;99.90;;;;;;5091463;28;20043;-54
2021/04/05 05:34:32;;;;;;;8.02;4.32;;;;;;;;;;5114963;27;20023;-54
2021/04/05 05:36:58;;;;;;;8.18;4.75;;;6.30;99.90;;;;;;5113750;28;20080;-54
2021/04/05 05:39:24;;;;;;;5.90;4.35;;;;;;;;;;5116892;28;20024;-53
2021/04/05 05:42:04;;;;;;;8.52;4.68;;;6.50;99.90;;;;;;5117777;28;20034;-53
2021/04/05 05:44:42;;;;;;;7.25;5.50;;;6.90;99.90;;;;;;5118053;27;20027;-54
2021/04/05 05:47:13;;;;;;;8.40;4.72;;;7.20;99.90;;;;;;5117919;28;20084;-53
2021/04/05 05:49:50;;;;;;;6.70;4.75;;;;;;;;;;5117614;27;20435;-53
2021/04/05 05:52:27;;;;;;;12.90;6.97;;;;;;;;;;5124757;27;20035;-55
2021/04/05 05:54:55;;;;;;;11.73;6.50;;;7.50;99.90;;;;;;5138274;27;20057;-52
2021/04/05 05:57:36;;;;;;;10.38;7.03;;;;;;;;;;5122533;27;20035;-54
2021/04/05 06:00:05;;;;;;;9.73;5.65;;;7.90;99.90;;;;;;5123856;27;20039;-53
2021/04/05 06:02:55;;;;;;;8.85;4.75;;;8.10;99.90;;;;;;5119307;27;20047;-52
2021/04/05 06:05:26;;;;;;;11.52;4.72;;;8.30;99.90;;;;;;5123967;27;20093;-54
2021/04/05 06:08:18;;;;;;;6.63;3.80;;;8.40;99.90;;;;;;5130155;27;20042;-51
2021/04/05 06:10:59;;;;;;;7.03;3.60;;;8.50;99.90;;;;;;5136173;27;20034;-52
2021/04/05 06:13:54;;;;;;;8.10;3.95;;;8.60;99.90;;;;;;5137753;27;20028;-52
2021/04/05 06:16:38;;;;;;;5.72;3.75;;;8.60;99.90;;;;;;5138330;27;20030;-51
2021/04/05 06:19:20;;;;;;;6.22;3.78;;;8.60;99.90;;;;;;5138157;27;20029;-52
2021/04/05 06:22:11;;;;;;;5.95;3.30;;;8.70;99.90;;;;;;5137920;27;20027;-52
2021/04/05 06:24:58;;;;;;;6.65;4.10;;;8.70;99.90;;;;;;5137968;27;20110;-51
2021/04/05 06:28:00;;;;;;;7.88;4.15;;;8.60;99.90;;;;;;5137946;27;20023;-52
2021/04/05 06:30:35;;;;;;;5.85;4.10;;;8.50;99.90;;;;;;5054412;28;20036;-52
2021/04/05 06:33:38;;;;;;;8.68;5.60;;;8.60;99.90;;;;;;5054341;28;20060;-52
2021/04/05 06:36:31;;;;;;;7.90;4.10;;;8.70;99.90;;;;;;5004523;28;20086;-51
2021/04/05 06:39:11;;;;;;;7.65;4.00;;;8.70;99.90;;;;;;5054133;28;20541;-52
2021/04/05 06:41:55;;;;;;;6.15;3.60;;;8.90;99.90;;;;;;5054150;28;20033;-52
2021/04/05 06:44:24;;;;;;;6.07;3.95;;;;;;;;;;5054112;28;20035;-52
2021/04/05 06:47:00;;;;;;;7.07;4.30;;;;;;;;;;5053518;28;20052;-52
2021/04/05 06:49:26;;;;;;;5.75;3.70;;;9.80;99.90;;;;;;5053532;28;20531;-51
2021/04/05 06:52:10;;;;;;;4.72;2.90;;;;;;;;;;5053665;28;20104;-52
2021/04/05 06:54:42;;;;;;;5.70;3.70;;;;;;;;;;5054112;28;20040;-51
2021/04/05 06:57:14;;;;;;;;;;;9.70;99.90;;;;;;5054544;28;20028;-51
2021/04/05 06:59:58;;;;;;;5.63;3.42;;;9.60;99.90;;;;;;5054021;28;19935;-52
2021/04/05 07:02:33;;;;;;;6.03;3.20;;;9.60;99.90;;;;;;5053810;28;20436;-52
2021/04/05 07:05:33;;;;;;;3.80;2.58;;;9.40;99.90;;;;;;5053865;28;20397;-52
2021/04/05 07:08:38;;;;;;;7.93;3.17;;;9.60;99.90;;;;;;5114580;28;20043;-51
2021/04/05 07:11:04;;;;;;;5.63;3.25;;;;;;;;;;5053630;28;20045;-51
2021/04/05 07:13:33;;;;;;;6.20;3.13;;;;;;;;;;5053862;28;20036;-51
2021/04/05 07:16:15;;;;;;;6.35;4.00;;;;;;;;;;5071403;28;20454;-52
2021/04/05 07:18:44;;;;;;;4.45;2.70;;;;;;;;;;5023611;28;20553;-52
2021/04/05 07:21:34;;;;;;;4.30;3.17;;;;;;;;;;5073313;28;20041;-52
2021/04/05 07:24:24;;;;;;;4.53;2.78;;;10.60;99.90;;;;;;5069011;28;20372;-53
2021/04/05 07:26:58;;;;;;;4.15;3.05;;;10.50;99.90;;;;;;5061923;28;20036;-52
2021/04/05 07:29:42;;;;;;;4.47;2.83;;;;;;;;;;5053273;28;20132;-52
2021/04/05 07:32:20;;;;;;;6.18;2.88;;;10.90;99.90;;;;;;5052981;28;20558;-52
2021/04/05 07:35:14;;;;;;;4.65;2.80;;;11.30;99.90;;;;;;5020028;28;20043;-52
2021/04/05 07:38:00;;;;;;;5.10;3.20;;;11.60;99.90;;;;;;5059501;28;20039;-52
2021/04/05 07:40:26;;;;;;;4.57;2.72;;;;;;;;;;5052978;28;20103;-52
2021/04/05 07:42:59;;;;;;;5.47;2.78;;;;;;;;;;5053068;28;20515;-52
2021/04/05 07:45:44;;;;;;;4.43;2.70;;;;;;;;;;5071615;28;20036;-51
2021/04/05 07:48:17;;;;;;;5.65;2.78;;;;;;;;;;5081450;27;20524;-52
2021/04/05 07:50:49;;;;;;;4.78;3.05;;;;;;;;;;5115551;28;20035;-52
2021/04/05 07:53:21;;;;;;;4.40;2.72;;;;;;;;;;5115478;28;20019;-52
2021/04/05 07:55:48;;;;;;;5.65;2.50;;;;;;;;;;5101672;27;20041;-51
2021/04/05 07:58:17;;;;;;;4.32;2.75;;;;;;;;;;5120414;27;20023;-52
2021/04/05 08:01:10;;;;;;;4.15;2.55;;;13.60;99.90;;;;;;5129784;27;20032;-52
2021/04/05 08:04:12;;;;;;;4.55;3.03;;;13.10;95.30;;;;;;5116849;27;20032;-51
2021/04/05 08:06:44;;;;;;;;;;;13.70;99.90;;;;;;5116021;27;20024;-52
2021/04/05 08:09:13;;;;;;;4.88;2.80;;;13.30;95.40;;;;;;5127231;27;19907;-51
2021/04/05 08:12:02;;;;;;;4.68;3.15;;;13.50;95.20;;;;;;5115161;28;20034;-51
2021/04/05 08:15:02;;;;;;;4.97;2.60;;;13.80;94.80;;;;;;5122455;27;20023;-51
2021/04/05 08:17:46;;;;;;;4.40;2.65;;;;;;;;;;5117711;27;20106;-51
2021/04/05 08:20:20;;;;;;;3.15;2.58;;;;;;;;;;5122136;27;20061;-51
2021/04/05 08:22:58;;;;;;;4.72;3.15;;;14.10;99.90;;;;;;5117609;27;20498;-51
2021/04/05 08:25:43;;;;;;;5.57;2.70;;;;;;;;;;5135132;27;20470;-51
2021/04/05 08:28:35;;;;;;;5.63;3.05;;;14.80;99.90;;;;;;5135116;27;20035;-52
2021/04/05 08:31:38;;;;;;;4.30;2.70;;;14.90;87.80;;;;;;5115433;28;20024;-51
2021/04/05 08:34:31;;;;;;;4.38;2.60;;;15.00;90.10;;;;;;5117663;27;20068;-51
2021/04/05 08:37:19;;;;;;;6.97;3.20;;;;;;;;;;5134306;27;20066;-51
2021/04/05 08:40:05;;;;;;;7.80;3.58;;;15.80;99.90;;;;;;5134950;27;20032;-50
2021/04/05 08:42:46;;;;;;;4.95;2.90;;;15.30;83.50;;;;;;5101382;27;20050;-51
2021/04/05 08:45:25;;;;;;;4.18;2.60;;;15.60;84.90;;;;;;5123034;27;20034;-50
2021/04/05 08:48:04;;;;;;;5.38;3.10;;;15.80;82.40;;;;;;5126063;27;20027;-50
2021/04/05 08:50:36;;;;;;;6.38;2.88;;;15.80;80.30;;;;;;5110004;28;20579;-50
2021/04/05 08:53:02;;;;;;;4.53;2.53;;;16.10;79.10;;;;;;5114406;28;20466;-50
2021/04/05 08:55:30;;;;;;;6.18;3.33;;;;;;;;;;5095872;27;20027;-50
2021/04/05 08:58:07;;;;;;;5.22;3.10;;;16.90;89.00;;;;;;5134526;27;20466;-50
2021/04/05 09:00:38;;;;;;;3.85;2.47;;;17.10;80.30;;;;;;5132060;27;20126;-51
2021/04/05 09:03:12;;;;;;;5.35;3.00;;;16.90;77.00;;;;;;5154091;27;20106;-51
2021/04/05 09:05:45;;;;;;;4.22;2.58;;;17.30;80.00;;;;;;5155521;27;20031;-51
2021/04/05 09:08:17;;;;;;;3.78;2.65;;;17.30;76.40;;;;;;5155289;27;20054;-51
2021/04/05 09:11:07;;;;;;;5.38;2.80;;;17.30;77.30;;;;;;5136282;27;20470;-50
2021/04/05 09:13:56;;;;;;;5.25;2.85;;;17.40;75.60;;;;;;5155057;27;20549;-51
2021/04/05 09:16:21;;;;;;;3.20;2.30;;;17.50;75.30;;;;;;5155251;27;20553;-49
2021/04/05 09:18:50;;;;;;;3.55;2.10;;;17.60;71.60;;;;;;5155497;27;20027;-50
2021/04/05 09:21:48;;;;;;;5.85;2.45;;;16.80;69.30;;;;;;5155104;27;20015;-50
2021/04/05 09:24:25;;;;;;;3.05;2.33;;;17.40;69.50;;;;;;5067635;28;20041;-49
2021/04/05 09:27:12;;;;;;;3.75;2.50;;;18.00;69.30;;;;;;5051202;28;20037;-49
2021/04/05 09:29:56;;;;;;;4.72;2.72;;;;;;;;;;5051311;28;20376;-49
2021/04/05 09:32:23;;;;;;;4.18;2.10;;;;;;;;;;5050939;28;20053;-50
2021/04/05 09:35:10;;;;;;;3.40;2.05;;;19.10;87.30;;;;;;5017994;28;20439;-49
2021/04/05 09:38:06;;;;;;;5.60;2.80;;;18.10;93.40;;;;;;5051162;28;20029;-49
2021/04/05 09:41:07;;;;;;;5.03;2.30;;;18.10;65.90;;;;;;5051067;28;20041;-49
2021/04/05 09:44:04;;;;;;;4.28;2.38;;;18.20;81.10;;;;;;5051208;28;20056;-50
2021/04/05 09:47:08;;;;;;;4.72;2.50;;;17.40;66.00;;;;;;5051061;28;20229;-49
2021/04/05 09:50:01;;;;;;;4.82;2.22;;;17.40;65.80;;;;;;5011189;28;20049;-49
2021/04/05 09:52:50;;;;;;;4.43;2.25;;;17.10;70.40;;;;;;5011207;28;20030;-50
2021/04/05 09:55:23;;;;;;;4.03;2.28;;;17.30;66.20;;;;;;4994774;28;20554;-49
2021/04/05 09:58:04;;;;;;;3.53;2.15;;;;;;;;;;4995104;28;20057;-49
2021/04/05 10:00:31;;;;;;;2.95;1.90;;;16.40;85.20;;;;;;5039942;28;20036;-49
2021/04/05 10:03:15;;;;;;;2.40;2.20;;;17.10;76.60;;;;;;5091250;28;20036;-49
2021/04/05 10:05:48;;;;;;;3.53;2.05;;;;;;;;;;5091150;28;20418;-49
2021/04/05 10:08:27;;;;;;;3.22;2.00;;;;;;;;;;5091138;28;20032;-49
2021/04/05 10:10:55;;;;;;;2.88;1.90;;;18.50;61.20;;;;;;5091439;28;20028;-49
2021/04/05 10:13:24;;;;;;;2.92;1.98;;;18.30;69.10;;;;;;5091049;28;20411;-49
2021/04/05 10:15:51;;;;;;;2.80;1.88;;;16.00;64.90;;;;;;5044672;28;20045;-50
2021/04/05 10:18:18;;;;;;;5.13;2.50;;;15.50;71.60;;;;;;5051337;28;20041;-49
2021/04/05 10:20:50;;;;;;;4.55;2.22;;;;;;;;;;5069523;28;20074;-49
2021/04/05 10:23:21;;;;;;;3.45;2.20;;;;;;;;;;5034557;28;20041;-49
2021/04/05 10:25:59;;;;;;;4.10;2.38;;;18.10;96.70;;;;;;5037800;28;20028;-49
2021/04/05 10:28:28;;;;;;;4.35;2.50;;;;;;;;;;5074359;28;20563;-47
2021/04/05 10:30:57;;;;;;;1.98;1.65;;;18.20;63.20;;;;;;5074465;28;20036;-51
2021/04/05 10:33:27;;;;;;;3.90;2.25;;;;;;;;;;5074103;28;20044;-49
2021/04/05 10:35:57;;;;;;;2.83;1.98;;;19.10;61.10;;;;;;5074310;28;20041;-51
2021/04/05 10:38:24;;;;;;;2.63;2.08;;;;;;;;;;5077251;28;20605;-49
2021/04/05 10:40:52;;;;;;;3.60;2.17;;;19.00;61.70;;;;;;5095062;28;20036;-50
2021/04/05 10:43:51;;;;;;;4.00;2.10;;;17.90;62.80;;;;;;5060496;28;20069;-51
2021/04/05 10:46:29;;;;;;;6.15;3.08;;;18.80;60.00;;;;;;5034710;28;20061;-49
2021/04/05 10:49:07;;;;;;;3.95;2.35;;;18.70;63.30;;;;;;5018014;28;20128;-50
2021/04/05 10:51:38;;;;;;;3.55;2.22;;;;;;;;;;5034009;28;20045;-50
2021/04/05 10:54:11;;;;;;;3.85;2.30;;;17.70;61.60;;;;;;5034037;28;20030;-49
2021/04/05 10:56:47;;;;;;;3.63;1.80;;;18.20;61.60;;;;;;5034130;28;20034;-52
2021/04/05 10:59:20;;;;;;;5.82;2.90;;;17.90;60.70;;;;;;5033944;28;20366;-50
2021/04/05 11:01:51;;;;;;;4.80;2.15;;;;;;;;;;5034198;28;20026;-51
2021/04/05 11:04:19;;;;;;;2.60;1.25;;;;;;;;;;5033425;28;20046;-51
2021/04/05 11:06:51;;;;;;;4.50;2.50;;;16.20;95.40;;;;;;5033082;28;20037;-50
2021/04/05 11:09:18;;;;;;;3.13;2.05;;;17.30;66.10;;;;;;5033140;28;20476;-50
2021/04/05 11:11:46;;;;;;;2.08;1.88;;;;;;;;;;5032041;28;20030;-50
2021/04/05 11:14:14;;;;;;;5.32;2.88;;;18.60;90.20;;;;;;5033598;28;20022;-50
2021/04/05 11:16:48;;;;;;;3.05;1.95;;;;;;;;;;5033604;28;20174;-49
2021/04/05 11:19:14;;;;;;;2.38;1.75;;;;;;;;;;5033448;28;20021;-51
2021/04/05 11:21:50;;;;;;;4.75;1.95;;;;;;;;;;5033512;28;20021;-49
2021/04/05 11:24:17;;;;;;;5.50;2.60;;;;;;;;;;5095217;28;20048;-49
2021/04/05 11:26:46;;;;;;;7.38;2.70;;;19.60;79.50;;;;;;5095629;28;20579;-49
2021/04/05 11:29:16;;;;;;;1.33;1.15;;;;;;;;;;5095937;28;20408;-49
2021/04/05 11:31:44;;;;;;;1.60;1.38;;;;;;;;;;5095482;28;20035;-51
2021/04/05 11:34:10;;;;;;;3.17;1.95;;;;;;;;;;5095404;28;20032;-49
2021/04/05 11:36:45;;;;;;;4.07;2.25;;;17.70;89.70;;;;;;5095274;28;20020;-49
2021/04/05 11:39:15;;;;;;;4.00;1.95;;;17.10;64.40;;;;;;5095614;28;20028;-51
2021/04/05 11:41:44;;;;;;;3.83;2.08;;;;;;;;;;5095167;28;20054;-47
2021/04/05 11:44:11;;;;;;;1.85;1.52;;;17.80;82.30;;;;;;5098854;27;20359;-48
2021/04/05 11:46:40;;;;;;;6.15;3.20;;;16.80;87.60;;;;;;5106891;28;20382;-54
2021/04/05 11:49:09;;;;;;;4.25;2.22;;;17.40;67.50;;;;;;5099963;28;20050;-47
2021/04/05 11:51:58;;;;;;;3.30;1.90;;;18.20;77.20;;;;;;5075932;28;20043;-53
2021/04/05 11:54:36;;;;;;;5.63;3.03;;;18.60;62.20;;;;;;5052349;28;20485;-50
2021/04/05 11:57:08;;;;;;;3.85;2.03;;;18.70;62.90;;;;;;5052266;28;20515;-49
2021/04/05 11:59:37;;;;;;;4.22;2.30;;;17.90;62.00;;;;;;5052011;28;20074;-50
2021/04/05 12:02:03;;;;;;;2.85;1.85;;;17.40;60.10;;;;;;5052336;28;20033;-47
2021/04/05 12:04:45;;;;;;;4.45;2.13;;;18.30;60.60;;;;;;5040194;28;20094;-44
2021/04/05 12:07:18;;;;;;;3.30;2.03;;;19.20;60.30;;;;;;5068347;28;20029;-49
2021/04/05 12:09:47;;;;;;;2.95;2.03;;;;;;;;;;5052194;28;20029;-47
2021/04/05 12:12:44;;;;;;;4.43;2.25;;;18.90;81.50;;;;;;5052214;28;20029;-48
2021/04/05 12:15:15;;;;;;;2.47;1.98;;;;;;;;;;5070656;28;20040;-48
2021/04/05 12:17:43;;;;;;;3.20;2.00;;;;;;;;;;5063097;28;20044;-48
2021/04/05 12:20:10;;;;;;;4.80;2.80;;;19.20;88.70;;;;;;5071711;28;20021;-46
2021/04/05 12:22:37;;;;;;;2.38;1.73;;;19.10;67.40;;;;;;5043125;28;20041;-49
2021/04/05 12:25:04;;;;;;;2.25;1.65;;;;;;;;;;5052184;28;20047;-49
2021/04/05 12:27:38;;;;;;;3.10;1.88;;;;;;;;;;5052118;28;20036;-52
2021/04/05 12:30:08;;;;;;;2.72;1.85;;;21.10;56.70;;;;;;5051819;28;20494;-49
2021/04/05 12:32:36;;;;;;;2.70;1.70;;;21.10;56.40;;;;;;5105465;28;20542;-49
2021/04/05 12:35:05;;;;;;;4.53;2.00;;;21.20;72.60;;;;;;5094142;28;20081;-47
2021/04/05 12:37:32;;;;;;;4.60;1.80;;;20.10;56.80;;;;;;5094278;28;20024;-48
2021/04/05 12:40:01;;;;;;;4.07;2.35;;;19.80;58.20;;;;;;5094302;28;20371;-47
2021/04/05 12:42:37;;;;;;;3.63;2.00;;;19.90;76.60;;;;;;5094215;28;20067;-50
2021/04/05 12:45:07;;;;;;;4.32;2.00;;;19.60;76.80;;;;;;5094062;28;20036;-47
2021/04/05 12:47:37;;;;;;;5.78;2.55;;;;;;;;;;5074913;28;20024;-52
2021/04/05 12:50:08;;;;;;;5.80;2.53;;;20.20;93.00;;;;;;5080978;28;20090;-49
2021/04/05 12:52:37;;;;;;;3.00;1.98;;;19.70;87.90;;;;;;5044536;28;20048;-49
2021/04/05 12:55:18;;;;;;;7.07;3.05;;;19.10;87.70;;;;;;5071630;28;20066;-50
2021/04/05 12:57:45;;;;;;;4.13;2.17;;;19.50;87.70;;;;;;5071030;28;20080;-49
2021/04/05 13:00:14;;;;;;;5.28;2.60;;;;;;;;;;5054744;28;20043;-48
2021/04/05 13:02:40;;;;;;;4.65;2.35;;;;;;;;;;5071246;28;20037;-49
2021/04/05 13:05:32;;;;;;;3.25;1.42;;;;;;;;;;5071830;28;20036;-47
2021/04/05 13:08:13;;;;;;;2.72;1.77;;;;;;;;;;5085188;28;20479;-47
2021/04/05 13:11:02;;;;;;;3.05;1.75;;;;;;;;;;5072542;28;20037;-51
2021/04/05 13:13:31;;;;;;;3.45;1.85;;;19.30;66.70;;;;;;5069837;28;20041;-49
2021/04/05 13:16:06;;;;;;;2.88;1.83;;;;;;;;;;5069889;28;20039;-51
2021/04/05 13:18:35;;;;;;;1.67;1.45;;;19.90;73.60;;;;;;5081739;28;20047;-51
2021/04/05 13:21:04;;;;;;;2.42;1.67;;;20.30;89.10;;;;;;5092468;28;20034;-52
2021/04/05 13:23:34;;;;;;;2.25;1.67;;;20.40;75.30;;;;;;5086668;28;20571;-51
2021/04/05 13:26:02;;;;;;;3.50;1.63;;;;;;;;;;5088618;28;20028;-51
2021/04/05 13:28:29;;;;;;;3.10;1.60;;;;;;;;;;5111839;28;20023;-51
2021/04/05 13:31:06;;;;;;;2.55;1.80;;;;;;;;;;5112736;28;20030;-51
2021/04/05 13:33:35;;;;;;;2.70;1.77;;;;;;;;;;5082205;28;20483;-51
2021/04/05 13:36:08;;;;;;;1.92;1.40;;;;;;;;;;5092019;28;20031;-48
2021/04/05 13:38:35;;;;;;;3.50;1.85;;;;;;;;;;5092170;28;20024;-52
2021/04/05 13:41:06;;;;;;;3.70;1.90;;;19.60;71.10;;;;;;5097596;28;20039;-48
2021/04/05 13:43:35;;;;;;;3.13;1.85;;;20.10;57.00;;;;;;5103656;28;20031;-50
2021/04/05 13:46:08;;;;;;;3.03;2.10;;;20.20;57.30;;;;;;5083649;28;20089;-48
2021/04/05 13:48:37;;;;;;;3.92;1.83;;;20.60;57.30;;;;;;5095399;28;20016;-48